createdAt,value
2022-10-29T00:09:39.092Z,7.20
2022-10-29T00:31:25.984Z,8.10
2022-10-29T00:53:11.969Z,7.50
2022-10-29T01:15:09.149Z,7.30
2022-10-29T01:36:59.482Z,6.80
2022-10-29T01:58:47.834Z,7.20
2022-10-29T02:20:33.722Z,7.60
2022-10-29T02:42:19.431Z,7.30
2022-10-29T03:04:05.326Z,7.60
2022-10-29T03:25:56.052Z,6.40
2022-10-29T03:47:42.474Z,7.80
2022-10-29T04:09:28.375Z,6.10
2022-10-29T04:31:15.200Z,6.00
2022-10-29T04:56:06.920Z,5.60
2022-10-29T05:17:52.850Z,5.50
2022-10-29T05:39:38.796Z,4.80
2022-10-29T06:01:24.552Z,5.30
2022-10-29T06:23:10.532Z,5.10
2022-10-29T06:44:56.202Z,5.70
2022-10-29T07:06:41.919Z,6.40
2022-10-29T07:28:27.740Z,6.00
2022-10-29T07:50:13.958Z,5.60
2022-10-29T08:11:59.771Z,5.30
2022-10-29T08:45:05.435Z,5.00
2022-10-29T09:07:02.804Z,4.60
2022-10-29T09:29:15.076Z,4.30
2022-10-29T09:51:10.712Z,3.60
2022-10-29T10:13:01.360Z,4.10
2022-10-29T10:34:44.322Z,4.40
2022-10-29T10:56:27.400Z,3.80
2022-10-29T11:18:18.361Z,3.80
2022-10-29T11:40:05.415Z,4.50
2022-10-29T12:01:57.618Z,4.20
2022-10-29T12:23:54.362Z,4.80
2022-10-29T12:46:19.079Z,4.70
2022-10-29T13:08:26.465Z,5.20
2022-10-29T13:30:21.182Z,5.90
2022-10-29T13:52:11.386Z,5.40
2022-10-29T14:13:58.746Z,6.40
2022-10-29T14:35:41.986Z,5.90
2022-10-29T14:57:27.920Z,6.00
2022-10-29T15:19:15.759Z,5.70
2022-10-29T15:41:30.748Z,5.90
2022-10-29T16:03:16.562Z,6.60
2022-10-29T16:24:59.581Z,6.60
2022-10-29T16:46:42.735Z,9.80
2022-10-29T17:26:03.566Z,12.30
2022-10-29T17:47:49.615Z,16.40
2022-10-29T18:09:35.501Z,13.90
2022-10-29T18:31:21.778Z,13.20
2022-10-29T18:53:07.614Z,12.00
2022-10-29T19:14:53.648Z,11.30
2022-10-29T19:36:40.731Z,9.90
2022-10-29T19:58:28.650Z,11.10
2022-10-29T20:20:17.304Z,10.70
2022-10-29T20:42:03.416Z,12.90
2022-10-29T21:03:51.471Z,17.00
2022-10-29T21:25:37.275Z,18.00
2022-10-29T21:47:22.962Z,18.20
2022-10-29T22:09:10.059Z,18.70
2022-10-29T22:31:01.914Z,18.40
2022-10-29T22:52:47.784Z,18.20
2022-10-29T23:14:33.460Z,17.40
2022-10-29T23:36:20.501Z,16.70
2022-10-29T23:58:06.493Z,17.50
